Time;durP1;ratioP1;P1;durP2;ratioP2;P2;SDS_P1;SDS_P2;PMS_P1;PMS_P2;Temp;Humidity;BMP_temperature;BMP_pressure;BME280_temperature;BME280_humidity;BME280_pressure;Samples;Min_cycle;Max_cycle;Signal;HPM_P1;HPM_P2
2023/03/19 00:00:19;;;;;;;;;;;12.40;99.90;;;;;;5036704;28;19954;-75
2023/03/19 00:02:49;;;;;;;;;;;11.40;99.90;;;;;;5053762;28;19905;-75
2023/03/19 00:05:16;;;;;;;;;;;11.50;99.90;;;;;;5035877;28;20322;-75
2023/03/19 00:07:42;;;;;;;;;;;11.40;99.90;;;;;;5053836;28;19916;-75
2023/03/19 00:10:08;;;;;;;;;;;11.40;99.90;;;;;;5053680;28;19905;-75
2023/03/19 00:12:33;;;;;;;;;;;11.40;99.90;;;;;;5053708;28;19944;-75
2023/03/19 00:14:59;;;;;;;;;;;11.40;99.90;;;;;;5052317;28;20392;-75
2023/03/19 00:17:24;;;;;;;;;;;11.90;99.90;;;;;;5053642;28;19908;-75
2023/03/19 00:19:50;;;;;;;;;;;11.40;99.90;;;;;;5053612;28;20288;-75
2023/03/19 00:22:15;;;;;;;;;;;11.40;99.90;;;;;;5052371;28;19993;-75
2023/03/19 00:24:41;;;;;;;;;;;11.30;99.90;;;;;;5052250;28;19909;-75
2023/03/19 00:27:06;;;;;;;;;;;11.30;99.90;;;;;;5053645;28;19909;-75
2023/03/19 00:29:32;;;;;;;;;;;11.30;99.90;;;;;;5053502;28;19996;-75
2023/03/19 00:31:57;;;;;;;;;;;11.30;99.90;;;;;;5053487;28;19905;-75
2023/03/19 00:34:23;;;;;;;;;;;11.30;99.90;;;;;;5052088;28;19915;-75
2023/03/19 00:36:48;;;;;;;;;;;11.40;99.90;;;;;;5052136;28;19912;-75
2023/03/19 00:39:14;;;;;;;;;;;11.30;99.90;;;;;;5053406;28;20378;-75
2023/03/19 00:41:39;;;;;;;;;;;11.30;99.90;;;;;;5054006;28;19912;-75
2023/03/19 00:44:05;;;;;;;;;;;11.30;99.90;;;;;;5053466;28;19908;-75
2023/03/19 00:46:31;;;;;;;;;;;11.20;99.90;;;;;;5052020;28;20003;-75
2023/03/19 00:48:57;;;;;;;;;;;11.20;99.90;;;;;;5053904;28;19909;-75
2023/03/19 00:51:23;;;;;;;;;;;11.50;99.90;;;;;;5035337;28;19905;-75
2023/03/19 00:53:49;;;;;;;;;;;11.10;99.90;;;;;;5035389;28;19915;-75
2023/03/19 00:56:18;;;;;;;;;;;11.00;99.90;;;;;;5052021;28;20356;-74
2023/03/19 00:58:44;;;;;;;;;;;11.00;99.90;;;;;;5053214;28;19911;-74
2023/03/19 01:01:11;;;;;;;;;;;10.90;99.90;;;;;;5053222;28;20368;-75
2023/03/19 01:03:36;;;;;;;;;;;10.90;99.90;;;;;;5055229;28;19909;-74
2023/03/19 01:06:05;;;;;;;;;;;10.80;99.90;;;;;;5056939;28;19983;-74
2023/03/19 01:08:30;;;;;;;;;;;10.70;99.90;;;;;;5057140;28;19991;-74
2023/03/19 01:10:56;;;;;;;;;;;10.90;99.90;;;;;;5039083;28;19967;-74
2023/03/19 01:13:21;;;;;;;;;;;10.60;99.90;;;;;;5039136;28;19958;-74
2023/03/19 01:15:50;;;;;;;;;;;10.60;99.90;;;;;;5056909;28;19905;-74
2023/03/19 01:18:19;;;;;;;;;;;10.60;99.90;;;;;;5057004;28;19905;-74
2023/03/19 01:20:45;;;;;;;;;;;10.60;99.90;;;;;;5038928;28;19952;-74
2023/03/19 01:23:10;;;;;;;;;;;10.60;99.90;;;;;;5056806;28;19904;-74
2023/03/19 01:25:37;;;;;;;;;;;10.80;99.90;;;;;;5057401;28;19975;-74
2023/03/19 01:28:03;;;;;;;;;;;10.70;99.90;;;;;;5055469;28;20006;-75
2023/03/19 01:30:29;;;;;;;;;;;10.70;99.90;;;;;;5056604;28;19905;-75
2023/03/19 01:32:54;;;;;;;;;;;10.70;99.90;;;;;;5056533;28;19905;-75
2023/03/19 01:35:20;;;;;;;;;;;10.70;99.90;;;;;;5055190;28;19905;-75
2023/03/19 01:37:47;;;;;;;;;;;10.70;99.90;;;;;;5056585;28;19997;-75
2023/03/19 01:40:13;;;;;;;;;;;10.80;99.90;;;;;;5056480;28;20364;-75
2023/03/19 01:42:54;;;;;;;;;;;10.80;99.90;;;;;;5038594;28;20004;-74
2023/03/19 01:45:34;;;;;;;;;;;10.80;99.90;;;;;;5055727;28;20343;-74
2023/03/19 01:48:00;;;;;;;;;;;10.90;99.90;;;;;;5056297;28;20275;-74
2023/03/19 01:50:37;;;;;;;;;;;11.00;99.90;;;;;;5038350;28;19905;-74
2023/03/19 01:53:03;;;;;;;;;;;11.00;99.90;;;;;;5054970;28;19911;-75
2023/03/19 01:55:29;;;;;;;;;;;11.00;99.90;;;;;;5056631;28;19905;-75
2023/03/19 01:57:55;;;;;;;;;;;11.00;99.90;;;;;;5038332;28;19905;-75
2023/03/19 02:00:23;;;;;;;;;;;10.90;99.90;;;;;;5056195;28;19971;-75
2023/03/19 02:02:52;;;;;;;;;;;10.80;99.90;;;;;;5054863;28;19904;-75
2023/03/19 02:05:24;;;;;;;;;;;10.70;99.90;;;;;;5038059;28;20360;-75
2023/03/19 02:07:50;;;;;;;;;;;10.70;99.90;;;;;;5038095;28;19912;-75
2023/03/19 02:10:16;;;;;;;;;;;10.70;99.90;;;;;;5038047;28;19905;-75
2023/03/19 02:12:43;;;;;;;;;;;10.60;99.90;;;;;;5055858;28;19911;-75
2023/03/19 02:15:09;;;;;;;;;;;10.50;99.90;;;;;;5053897;28;20318;-76
2023/03/19 02:17:34;;;;;;;;;;;10.50;99.90;;;;;;5055795;28;19908;-75
2023/03/19 02:20:07;;;;;;;;;;;10.50;99.90;;;;;;5055826;28;20346;-75
2023/03/19 02:22:35;;;;;;;;;;;10.40;99.90;;;;;;5037758;28;19904;-75
2023/03/19 02:25:05;;;;;;;;;;;10.40;99.90;;;;;;5055721;28;19911;-75
2023/03/19 02:27:30;;;;;;;;;;;10.40;99.90;;;;;;5055519;28;20351;-75
2023/03/19 02:29:56;;;;;;;;;;;10.40;99.90;;;;;;5055524;28;19963;-75
2023/03/19 02:32:21;;;;;;;;;;;10.50;99.90;;;;;;5054290;28;19905;-75
2023/03/19 02:34:47;;;;;;;;;;;10.50;99.90;;;;;;5055416;28;19960;-75
2023/03/19 02:37:16;;;;;;;;;;;10.50;99.90;;;;;;5055470;28;19912;-75
2023/03/19 02:39:42;;;;;;;;;;;10.50;99.90;;;;;;5055331;28;19909;-75
2023/03/19 02:42:08;;;;;;;;;;;10.60;99.90;;;;;;5055626;28;20363;-75
2023/03/19 02:44:34;;;;;;;;;;;10.50;99.90;;;;;;5054107;28;19905;-75
2023/03/19 02:47:00;;;;;;;;;;;10.50;99.90;;;;;;5055196;28;19958;-75
2023/03/19 02:49:26;;;;;;;;;;;10.50;99.90;;;;;;5037294;28;19911;-75
2023/03/19 02:51:51;;;;;;;;;;;10.50;99.90;;;;;;5055177;28;20367;-75
2023/03/19 02:54:17;;;;;;;;;;;10.40;99.90;;;;;;5053820;28;19912;-75
2023/03/19 02:56:42;;;;;;;;;;;10.40;99.90;;;;;;5053809;28;19963;-75
2023/03/19 02:59:08;;;;;;;;;;;10.30;99.90;;;;;;5055088;28;20276;-75
2023/03/19 03:01:34;;;;;;;;;;;10.30;99.90;;;;;;5037172;28;20019;-75
2023/03/19 03:03:59;;;;;;;;;;;10.20;99.90;;;;;;5054938;28;19912;-75
2023/03/19 03:06:24;;;;;;;;;;;10.10;99.90;;;;;;5053491;28;20246;-75
2023/03/19 03:08:50;;;;;;;;;;;10.10;99.90;;;;;;5036985;28;19909;-75
2023/03/19 03:11:16;;;;;;;;;;;10.10;99.90;;;;;;5055476;28;20268;-75
2023/03/19 03:13:44;;;;;;;;;;;10.20;99.90;;;;;;5054709;28;20003;-75
2023/03/19 03:16:09;;;;;;;;;;;10.00;99.90;;;;;;5053349;28;19994;-75
2023/03/19 03:18:35;;;;;;;;;;;10.00;99.90;;;;;;5054755;28;20337;-75
2023/03/19 03:21:01;;;;;;;;;;;10.00;99.90;;;;;;5053371;28;20327;-75
2023/03/19 03:23:26;;;;;;;;;;;10.00;99.90;;;;;;5053325;28;19935;-75
2023/03/19 03:25:52;;;;;;;;;;;10.00;99.90;;;;;;5052763;28;19991;-75
2023/03/19 03:28:20;;;;;;;;;;;10.00;99.90;;;;;;5036162;28;19905;-75
2023/03/19 03:30:45;;;;;;;;;;;10.00;99.90;;;;;;5053244;28;19951;-75
2023/03/19 03:33:15;;;;;;;;;;;10.10;99.90;;;;;;5054673;28;19913;-76
2023/03/19 03:35:41;;;;;;;;;;;10.10;99.90;;;;;;5053045;28;19909;-76
2023/03/19 03:38:06;;;;;;;;;;;10.10;99.90;;;;;;5054393;28;20383;-76
2023/03/19 03:40:33;;;;;;;;;;;10.10;99.90;;;;;;5053052;28;19950;-76
2023/03/19 03:42:58;;;;;;;;;;;10.00;99.90;;;;;;5053161;28;19905;-76
2023/03/19 03:45:24;;;;;;;;;;;9.90;99.90;;;;;;5054703;28;20272;-76
2023/03/19 03:47:50;;;;;;;;;;;9.80;99.90;;;;;;5054695;28;20302;-76
2023/03/19 03:50:15;;;;;;;;;;;9.80;99.90;;;;;;5054689;28;20408;-76
2023/03/19 03:52:41;;;;;;;;;;;9.70;99.90;;;;;;5036203;28;19959;-76
2023/03/19 03:55:07;;;;;;;;;;;9.60;99.90;;;;;;5054038;28;19912;-76
2023/03/19 03:57:33;;;;;;;;;;;9.60;99.90;;;;;;5053852;28;19905;-76
2023/03/19 03:59:59;;;;;;;;;;;9.50;99.90;;;;;;5053977;28;19905;-76
2023/03/19 04:02:24;;;;;;;;;;;9.50;99.90;;;;;;5052594;28;19951;-76
2023/03/19 04:04:50;;;;;;;;;;;9.30;99.90;;;;;;5053773;28;19967;-76
2023/03/19 04:07:16;;;;;;;;;;;9.30;99.90;;;;;;5052450;28;19962;-76
2023/03/19 04:09:41;;;;;;;;;;;9.30;99.90;;;;;;5053876;28;20322;-76
2023/03/19 04:12:07;;;;;;;;;;;9.20;99.90;;;;;;5053777;28;19958;-76
2023/03/19 04:14:33;;;;;;;;;;;9.20;99.90;;;;;;5036377;28;19931;-76
2023/03/19 04:16:58;;;;;;;;;;;10.10;99.90;;;;;;5053709;28;20388;-76
2023/03/19 04:19:24;;;;;;;;;;;9.10;99.90;;;;;;5053714;28;19905;-76
2023/03/19 04:21:49;;;;;;;;;;;9.00;99.90;;;;;;5053808;28;19904;-76
2023/03/19 04:24:15;;;;;;;;;;;9.00;99.90;;;;;;5052412;28;19912;-76
2023/03/19 04:26:40;;;;;;;;;;;9.00;99.90;;;;;;5053603;28;19916;-76
2023/03/19 04:29:07;;;;;;;;;;;9.00;99.90;;;;;;5052397;28;19905;-76
2023/03/19 04:31:33;;;;;;;;;;;8.90;99.90;;;;;;5053986;28;20007;-76
2023/03/19 04:33:59;;;;;;;;;;;8.90;99.90;;;;;;5052546;28;19954;-76
2023/03/19 04:36:24;;;;;;;;;;;8.90;99.90;;;;;;5035603;28;19909;-76
2023/03/19 04:38:50;;;;;;;;;;;8.80;99.90;;;;;;5058186;28;20287;-76
2023/03/19 04:41:15;;;;;;;;;;;8.80;99.90;;;;;;5060857;28;19904;-76
2023/03/19 04:43:41;;;;;;;;;;;8.80;99.90;;;;;;5060134;28;19916;-75
2023/03/19 04:46:09;;;;;;;;;;;8.70;99.90;;;;;;5059985;28;19944;-74
2023/03/19 04:48:38;;;;;;;;;;;10.60;99.90;;;;;;5060113;28;19904;-74
2023/03/19 04:51:07;;;;;;;;;;;10.30;99.90;;;;;;5058952;28;20319;-74
2023/03/19 04:53:33;;;;;;;;;;;8.60;99.90;;;;;;5042391;28;19909;-75
2023/03/19 04:56:00;;;;;;;;;;;8.50;99.90;;;;;;5060027;28;19905;-75
2023/03/19 04:58:26;;;;;;;;;;;8.50;99.90;;;;;;5042641;28;19905;-75
2023/03/19 05:00:52;;;;;;;;;;;9.10;99.90;;;;;;5060495;28;19911;-75
2023/03/19 05:03:18;;;;;;;;;;;8.40;99.90;;;;;;5060514;28;19952;-75
2023/03/19 05:05:43;;;;;;;;;;;8.40;99.90;;;;;;5042341;28;19982;-75
2023/03/19 05:08:09;;;;;;;;;;;8.50;99.90;;;;;;5058586;28;19999;-75
2023/03/19 05:10:35;;;;;;;;;;;8.40;99.90;;;;;;5042133;28;19911;-75
2023/03/19 05:13:00;;;;;;;;;;;8.40;99.90;;;;;;5059883;28;19988;-75
2023/03/19 05:15:26;;;;;;;;;;;8.40;99.90;;;;;;5058660;28;20475;-75
2023/03/19 05:17:52;;;;;;;;;;;8.30;99.90;;;;;;5060409;28;19905;-75
2023/03/19 05:20:18;;;;;;;;;;;8.40;99.90;;;;;;5041964;28;20326;-75
2023/03/19 05:22:45;;;;;;;;;;;8.30;99.90;;;;;;5058667;28;19948;-75
2023/03/19 05:25:11;;;;;;;;;;;8.30;99.90;;;;;;5041902;28;19909;-75
2023/03/19 05:27:36;;;;;;;;;;;8.30;99.90;;;;;;5041920;28;20380;-75
2023/03/19 05:30:02;;;;;;;;;;;8.50;99.90;;;;;;5059906;28;19912;-75
2023/03/19 05:32:28;;;;;;;;;;;8.50;99.90;;;;;;5059883;28;20364;-75
2023/03/19 05:34:53;;;;;;;;;;;9.20;99.90;;;;;;5058521;28;20279;-75
2023/03/19 05:37:20;;;;;;;;;;;8.90;99.90;;;;;;5059700;28;19912;-75
2023/03/19 05:39:46;;;;;;;;;;;8.70;99.90;;;;;;5041707;28;19940;-75
2023/03/19 05:42:11;;;;;;;;;;;8.70;99.90;;;;;;5058393;28;19956;-75
2023/03/19 05:44:37;;;;;;;;;;;8.80;99.90;;;;;;5059642;28;19990;-75
2023/03/19 05:47:02;;;;;;;;;;;8.80;99.90;;;;;;5059895;28;20391;-75
2023/03/19 05:49:28;;;;;;;;;;;8.80;99.90;;;;;;5056177;28;20280;-75
2023/03/19 05:51:53;;;;;;;;;;;8.90;99.90;;;;;;5056707;28;19954;-75
2023/03/19 05:54:19;;;;;;;;;;;8.80;99.90;;;;;;5055246;28;19909;-75
2023/03/19 05:56:44;;;;;;;;;;;8.80;99.90;;;;;;5038635;28;19908;-75
2023/03/19 05:59:10;;;;;;;;;;;8.80;99.90;;;;;;5038658;28;20286;-75
2023/03/19 06:01:35;;;;;;;;;;;8.90;99.90;;;;;;5056446;28;19905;-75
2023/03/19 06:04:01;;;;;;;;;;;8.80;99.90;;;;;;5038530;28;19912;-75
2023/03/19 06:06:26;;;;;;;;;;;8.80;99.90;;;;;;5056238;28;20342;-74
2023/03/19 06:08:52;;;;;;;;;;;8.80;99.90;;;;;;5056257;28;19915;-74
2023/03/19 06:11:17;;;;;;;;;;;8.70;99.90;;;;;;5054987;28;20356;-74
2023/03/19 06:13:43;;;;;;;;;;;8.70;99.90;;;;;;5056415;28;19969;-74
2023/03/19 06:16:09;;;;;;;;;;;8.70;99.90;;;;;;5056127;28;19905;-75
2023/03/19 06:18:35;;;;;;;;;;;8.70;99.90;;;;;;5056406;28;19904;-75
2023/03/19 06:21:00;;;;;;;;;;;8.70;99.90;;;;;;5056356;28;19911;-75
2023/03/19 06:23:26;;;;;;;;;;;8.70;99.90;;;;;;5056316;28;19928;-75
2023/03/19 06:25:51;;;;;;;;;;;9.00;99.90;;;;;;5056191;28;19904;-75
2023/03/19 06:28:17;;;;;;;;;;;8.80;99.90;;;;;;5038238;28;19909;-75
2023/03/19 06:30:43;;;;;;;;;;;8.80;99.90;;;;;;5056401;28;19905;-75
2023/03/19 06:33:08;;;;;;;;;;;8.80;99.90;;;;;;5055870;28;19905;-75
2023/03/19 06:35:34;;;;;;;;;;;8.80;99.90;;;;;;5056012;28;19905;-75
2023/03/19 06:38:00;;;;;;;;;;;8.90;99.90;;;;;;5054667;28;19947;-75
2023/03/19 06:40:25;;;;;;;;;;;8.90;99.90;;;;;;5038038;28;19915;-74
2023/03/19 06:42:51;;;;;;;;;;;8.90;99.90;;;;;;5055748;28;19991;-74
2023/03/19 06:45:18;;;;;;;;;;;8.90;99.90;;;;;;5037801;28;19916;-74
2023/03/19 06:47:45;;;;;;;;;;;8.90;99.90;;;;;;5054566;28;20413;-74
2023/03/19 06:50:11;;;;;;;;;;;9.30;99.90;;;;;;5055900;28;20288;-74
2023/03/19 06:52:37;;;;;;;;;;;8.90;99.90;;;;;;5038023;28;19916;-74
2023/03/19 06:55:03;;;;;;;;;;;8.80;99.90;;;;;;5055720;28;19908;-74
2023/03/19 06:57:28;;;;;;;;;;;8.90;99.90;;;;;;5056013;28;19904;-74
2023/03/19 06:59:54;;;;;;;;;;;8.90;99.90;;;;;;5054749;28;19912;-74
2023/03/19 07:02:20;;;;;;;;;;;8.90;99.90;;;;;;5055263;28;19911;-74
2023/03/19 07:04:45;;;;;;;;;;;8.90;99.90;;;;;;5055737;28;19931;-74
2023/03/19 07:07:10;;;;;;;;;;;8.90;99.90;;;;;;5055274;28;19970;-74
2023/03/19 07:09:37;;;;;;;;;;;8.80;99.90;;;;;;5055573;28;20011;-75
2023/03/19 07:12:03;;;;;;;;;;;8.80;99.90;;;;;;5055210;28;20333;-74
2023/03/19 07:14:28;;;;;;;;;;;8.80;99.90;;;;;;5055683;28;19996;-74
2023/03/19 07:16:54;;;;;;;;;;;8.60;99.90;;;;;;5054975;28;19908;-74
2023/03/19 07:19:19;;;;;;;;;;;8.90;99.90;;;;;;5053935;28;19958;-74
2023/03/19 07:21:45;;;;;;;;;;;8.90;99.90;;;;;;5055249;28;19904;-74
2023/03/19 07:24:11;;;;;;;;;;;8.90;99.90;;;;;;5055742;28;19957;-74
2023/03/19 07:26:36;;;;;;;;;;;8.80;99.90;;;;;;5053701;28;20388;-75
2023/03/19 07:29:02;;;;;;;;;;;8.80;99.90;;;;;;5037406;28;19904;-74
2023/03/19 07:31:27;;;;;;;;;;;8.80;99.90;;;;;;5055165;28;19905;-74
2023/03/19 07:33:53;;;;;;;;;;;8.70;99.90;;;;;;5054974;28;19998;-74
2023/03/19 07:36:20;;;;;;;;;;;8.70;99.90;;;;;;5054801;28;20368;-74
2023/03/19 07:38:46;;;;;;;;;;;8.70;99.90;;;;;;5054925;28;19911;-75
2023/03/19 07:41:11;;;;;;;;;;;8.70;99.90;;;;;;5055335;28;20367;-75
2023/03/19 07:43:37;;;;;;;;;;;8.80;99.90;;;;;;5055692;28;19993;-75
2023/03/19 07:46:02;;;;;;;;;;;9.10;99.90;;;;;;5037313;28;19904;-75
2023/03/19 07:48:28;;;;;;;;;;;8.80;99.90;;;;;;5054022;28;19908;-75
2023/03/19 07:50:53;;;;;;;;;;;8.80;99.90;;;;;;5056049;28;19905;-76
2023/03/19 07:53:19;;;;;;;;;;;8.70;99.90;;;;;;5054478;28;19904;-76
2023/03/19 07:55:45;;;;;;;;;;;8.80;99.90;;;;;;5056774;28;19905;-76
2023/03/19 07:58:11;;;;;;;;;;;8.90;99.90;;;;;;5056514;28;20318;-76
2023/03/19 08:00:36;;;;;;;;;;;9.00;99.90;;;;;;5055895;28;19957;-75
2023/03/19 08:03:02;;;;;;;;;;;9.00;99.90;;;;;;5056153;28;19905;-75
2023/03/19 08:05:27;;;;;;;;;;;9.00;99.90;;;;;;5055766;28;19935;-75
2023/03/19 08:07:53;;;;;;;;;;;9.10;99.90;;;;;;5055702;28;19912;-76
2023/03/19 08:10:18;;;;;;;;;;;9.10;99.90;;;;;;5055690;28;19911;-76
2023/03/19 08:12:44;;;;;;;;;;;9.20;99.90;;;;;;5054850;28;20352;-76
2023/03/19 08:15:10;;;;;;;;;;;9.20;99.90;;;;;;5037509;28;19909;-76
2023/03/19 08:17:39;;;;;;;;;;;10.00;99.90;;;;;;5037237;28;19905;-76
2023/03/19 08:20:07;;;;;;;;;;;9.20;99.90;;;;;;5055407;28;19950;-75
2023/03/19 08:22:33;;;;;;;;;;;9.30;99.90;;;;;;5055134;28;19911;-76
2023/03/19 08:24:58;;;;;;;;;;;9.30;99.90;;;;;;5053810;28;19905;-75
2023/03/19 08:27:29;;;;;;;;;;;9.40;99.90;;;;;;5055126;28;20265;-76
2023/03/19 08:29:55;;;;;;;;;;;11.00;99.90;;;;;;5054984;28;19904;-76
2023/03/19 08:32:20;;;;;;;;;;;9.50;99.90;;;;;;5036704;28;20405;-76
2023/03/19 08:34:46;;;;;;;;;;;9.50;99.90;;;;;;5055024;28;20007;-76
2023/03/19 08:37:11;;;;;;;;;;;9.50;99.90;;;;;;5055284;28;19912;-76
2023/03/19 08:39:36;;;;;;;;;;;10.70;99.90;;;;;;5054908;28;20380;-76
2023/03/19 08:42:02;;;;;;;;;;;9.80;99.90;;;;;;5054063;28;19943;-75
2023/03/19 08:44:27;;;;;;;;;;;9.90;99.90;;;;;;5053167;28;19991;-77
2023/03/19 08:46:53;;;;;;;;;;;10.00;99.90;;;;;;5036829;28;19905;-75
2023/03/19 08:49:18;;;;;;;;;;;10.00;99.90;;;;;;5054674;28;20403;-76
2023/03/19 08:51:44;;;;;;;;;;;10.10;99.90;;;;;;5054408;28;19905;-76
2023/03/19 08:54:10;;;;;;;;;;;10.10;99.90;;;;;;5036546;28;19958;-77
2023/03/19 08:56:37;;;;;;;;;;;10.10;99.90;;;;;;5053526;28;19905;-77
2023/03/19 08:59:02;;;;;;;;;;;10.10;99.90;;;;;;5054899;28;19911;-77
2023/03/19 09:01:28;;;;;;;;;;;10.00;99.90;;;;;;5054360;28;19904;-77
2023/03/19 09:03:53;;;;;;;;;;;10.00;99.90;;;;;;5053460;28;19911;-75
2023/03/19 09:06:19;;;;;;;;;;;9.90;99.90;;;;;;5053264;28;19909;-76
2023/03/19 09:08:45;;;;;;;;;;;9.90;99.90;;;;;;5054353;28;19916;-76
2023/03/19 09:11:10;;;;;;;;;;;9.80;99.90;;;;;;5054009;28;19905;-76
2023/03/19 09:13:36;;;;;;;;;;;9.70;99.90;;;;;;5054090;28;19908;-76
2023/03/19 09:16:02;;;;;;;;;;;9.60;99.90;;;;;;5054534;28;19904;-75
2023/03/19 09:18:27;;;;;;;;;;;9.60;99.90;;;;;;5036082;28;20302;-76
2023/03/19 09:20:53;;;;;;;;;;;9.70;99.90;;;;;;5054568;28;19908;-76
2023/03/19 09:23:19;;;;;;;;;;;9.80;99.90;;;;;;5054458;28;19905;-76
2023/03/19 09:25:45;;;;;;;;;;;9.80;99.90;;;;;;5056314;28;20311;-75
2023/03/19 09:28:11;;;;;;;;;;;9.90;99.90;;;;;;5040457;28;19963;-76
2023/03/19 09:30:37;;;;;;;;;;;9.90;99.90;;;;;;5056384;28;20257;-76
2023/03/19 09:33:03;;;;;;;;;;;10.10;99.90;;;;;;5057447;28;19912;-75
2023/03/19 09:35:30;;;;;;;;;;;10.10;99.90;;;;;;5065370;28;19908;-75
2023/03/19 09:37:59;;;;;;;;;;;10.10;99.90;;;;;;5058362;28;19904;-75
2023/03/19 09:40:28;;;;;;;;;;;10.10;99.90;;;;;;5059179;28;19905;-75
2023/03/19 09:43:05;;;;;;;;;;;10.20;99.90;;;;;;5078007;28;20412;-75
2023/03/19 09:45:31;;;;;;;;;;;10.20;99.90;;;;;;5075944;28;19995;-75
2023/03/19 09:47:59;;;;;;;;;;;10.10;99.90;;;;;;5058673;28;19955;-75
2023/03/19 09:50:27;;;;;;;;;;;10.10;99.90;;;;;;5076565;28;19904;-75
2023/03/19 09:52:53;;;;;;;;;;;10.10;99.90;;;;;;5076675;28;20329;-75
2023/03/19 09:55:37;;;;;;;;;;;10.10;99.90;;;;;;5076525;28;19908;-75
2023/03/19 09:58:07;;;;;;;;;;;10.10;99.90;;;;;;5058475;28;19958;-75
2023/03/19 10:00:35;;;;;;;;;;;10.10;99.90;;;;;;5076671;28;20260;-76
2023/03/19 10:03:07;;;;;;;;;;;10.80;99.90;;;;;;5076233;28;19904;-76
2023/03/19 10:05:51;;;;;;;;;;;10.20;99.90;;;;;;5058372;28;20314;-76
2023/03/19 10:08:25;;;;;;;;;;;10.20;99.90;;;;;;5076338;28;19916;-76
2023/03/19 10:10:50;;;;;;;;;;;10.30;99.90;;;;;;5058220;28;19904;-76
2023/03/19 10:13:36;;;;;;;;;;;10.30;99.90;;;;;;5075883;28;20029;-75
2023/03/19 10:16:03;;;;;;;;;;;10.40;99.90;;;;;;5076349;28;19904;-76
2023/03/19 10:18:31;;;;;;;;;;;10.50;99.90;;;;;;5076154;28;19927;-76
2023/03/19 10:21:04;;;;;;;;;;;10.40;99.90;;;;;;5075939;28;19904;-76
2023/03/19 10:23:40;;;;;;;;;;;10.40;99.90;;;;;;5057818;28;19905;-75
2023/03/19 10:26:10;;;;;;;;;;;10.50;99.90;;;;;;5075773;28;19904;-76
2023/03/19 10:28:35;;;;;;;;;;;10.60;99.90;;;;;;5076284;28;19911;-75
2023/03/19 10:31:01;;;;;;;;;;;10.60;99.90;;;;;;5075745;28;19904;-76
2023/03/19 10:33:35;;;;;;;;;;;10.70;99.90;;;;;;5075587;28;19908;-75
2023/03/19 10:36:06;;;;;;;;;;;10.70;99.90;;;;;;5075160;28;19911;-76
2023/03/19 10:38:37;;;;;;;;;;;10.60;99.90;;;;;;5057553;28;19904;-75
2023/03/19 10:41:11;;;;;;;;;;;10.60;99.90;;;;;;5075990;28;19912;-75
2023/03/19 10:43:38;;;;;;;;;;;10.70;99.90;;;;;;5075537;28;20393;-76
2023/03/19 10:46:10;;;;;;;;;;;11.60;99.90;;;;;;5075303;28;20378;-76
2023/03/19 10:48:41;;;;;;;;;;;10.70;99.90;;;;;;5057551;28;19905;-77
2023/03/19 10:51:07;;;;;;;;;;;10.60;99.90;;;;;;5075485;28;19912;-77
2023/03/19 10:53:33;;;;;;;;;;;10.70;99.90;;;;;;5075249;28;19922;-77
2023/03/19 10:56:01;;;;;;;;;;;10.70;99.90;;;;;;5075119;28;20264;-77
2023/03/19 10:58:27;;;;;;;;;;;10.60;99.90;;;;;;5057333;28;19905;-76
2023/03/19 11:00:57;;;;;;;;;;;10.60;99.90;;;;;;5057367;28;20481;-76
2023/03/19 11:03:32;;;;;;;;;;;11.60;99.90;;;;;;5075177;28;19940;-76
2023/03/19 11:06:17;;;;;;;;;;;10.70;99.90;;;;;;5075238;28;19909;-77
2023/03/19 11:08:48;;;;;;;;;;;10.70;99.90;;;;;;5057329;28;19995;-77
2023/03/19 11:11:31;;;;;;;;;;;10.60;99.90;;;;;;5075335;28;19911;-77
2023/03/19 11:13:57;;;;;;;;;;;10.60;99.90;;;;;;5075105;28;19919;-75
2023/03/19 11:16:22;;;;;;;;;;;10.70;99.90;;;;;;5074861;28;20248;-77
2023/03/19 11:18:48;;;;;;;;;;;10.50;99.90;;;;;;5075484;28;19904;-77
2023/03/19 11:21:26;;;;;;;;;;;11.30;99.90;;;;;;5075045;28;19904;-77
2023/03/19 11:23:57;;;;;;;;;;;10.50;99.90;;;;;;5075356;28;19910;-77
2023/03/19 11:26:27;;;;;;;;;;;10.50;99.90;;;;;;5074590;28;19912;-77
2023/03/19 11:28:54;;;;;;;;;;;10.50;99.90;;;;;;5056637;28;19905;-77
2023/03/19 11:31:28;;;;;;;;;;;10.70;99.90;;;;;;5074630;28;19904;-77
2023/03/19 11:34:13;;;;;;;;;;;10.70;99.90;;;;;;5056505;28;20259;-76
2023/03/19 11:36:38;;;;;;;;;;;10.70;99.90;;;;;;5056435;28;19904;-77
2023/03/19 11:39:14;;;;;;;;;;;10.70;99.90;;;;;;5074365;28;19999;-77
2023/03/19 11:41:59;;;;;;;;;;;10.70;99.90;;;;;;5075077;28;20410;-77
2023/03/19 11:44:24;;;;;;;;;;;10.80;99.90;;;;;;5066735;28;20004;-76
2023/03/19 11:46:54;;;;;;;;;;;10.60;99.90;;;;;;5036033;28;19995;-77
2023/03/19 11:49:26;;;;;;;;;;;10.80;99.90;;;;;;5053955;28;20327;-77
2023/03/19 11:51:55;;;;;;;;;;;10.80;99.90;;;;;;5054173;28;20363;-77
2023/03/19 11:54:39;;;;;;;;;;;10.90;99.90;;;;;;5036510;28;19916;-77
2023/03/19 11:57:13;;;;;;;;;;;10.90;99.90;;;;;;5036371;28;19996;-77
2023/03/19 11:59:38;;;;;;;;;;;10.90;99.90;;;;;;5054406;28;19905;-77
2023/03/19 12:02:24;;;;;;;;;;;10.90;99.90;;;;;;5036060;28;19905;-77
2023/03/19 12:04:57;;;;;;;;;;;11.00;99.90;;;;;;5042603;28;19963;-77
2023/03/19 12:07:34;;;;;;;;;;;11.00;99.90;;;;;;5053833;28;19964;-77
2023/03/19 12:10:24;;;;;;;;;;;11.10;99.90;;;;;;5036139;28;19909;-77
2023/03/19 12:13:05;;;;;;;;;;;11.10;99.90;;;;;;5036264;28;19931;-77
2023/03/19 12:15:45;;;;;;;;;;;11.20;99.90;;;;;;5053962;28;20020;-77
2023/03/19 12:18:28;;;;;;;;;;;11.20;99.90;;;;;;5053873;28;19969;-77
2023/03/19 12:20:53;;;;;;;;;;;11.20;99.90;;;;;;5053958;28;19905;-76
2023/03/19 12:23:38;;;;;;;;;;;11.30;99.90;;;;;;5036262;28;19904;-77
2023/03/19 12:26:06;;;;;;;;;;;11.30;99.90;;;;;;5035923;28;19911;-77
2023/03/19 12:28:40;;;;;;;;;;;11.40;99.90;;;;;;5053887;28;20272;-77
2023/03/19 12:31:05;;;;;;;;;;;11.60;99.90;;;;;;5035880;28;19955;-77
2023/03/19 12:33:34;;;;;;;;;;;11.60;99.90;;;;;;5053731;28;19905;-77
2023/03/19 12:36:00;;;;;;;;;;;11.70;99.90;;;;;;5035821;28;20256;-77
2023/03/19 12:38:29;;;;;;;;;;;11.80;99.90;;;;;;5053684;28;20279;-77
2023/03/19 12:41:01;;;;;;;;;;;11.90;99.90;;;;;;5053701;28;20395;-77
2023/03/19 12:43:26;;;;;;;;;;;11.90;99.90;;;;;;5054168;28;20257;-77
2023/03/19 12:46:12;;;;;;;;;;;11.80;99.90;;;;;;5053983;28;19991;-77
2023/03/19 12:48:44;;;;;;;;;;;11.80;99.90;;;;;;5035664;28;19951;-77
2023/03/19 12:51:12;;;;;;;;;;;11.80;99.90;;;;;;5035913;28;19904;-77
2023/03/19 12:53:41;;;;;;;;;;;11.80;99.90;;;;;;5035500;28;19919;-77
2023/03/19 12:56:11;;;;;;;;;;;11.80;99.90;;;;;;5053322;28;19905;-77
2023/03/19 12:58:42;;;;;;;;;;;11.90;99.90;;;;;;5053930;28;19904;-77
2023/03/19 13:01:16;;;;;;;;;;;12.00;99.90;;;;;;5058016;28;19950;-77
2023/03/19 13:03:51;;;;;;;;;;;11.90;99.90;;;;;;5057324;28;19994;-77
2023/03/19 13:06:20;;;;;;;;;;;12.00;99.90;;;;;;5039216;28;19916;-77
2023/03/19 13:08:52;;;;;;;;;;;12.10;99.90;;;;;;5057346;28;19962;-77
2023/03/19 13:11:33;;;;;;;;;;;12.10;99.90;;;;;;5039420;28;20070;-77
2023/03/19 13:14:07;;;;;;;;;;;12.40;99.90;;;;;;5039231;28;20392;-79
2023/03/19 13:16:42;;;;;;;;;;;12.60;99.90;;;;;;5041092;28;20004;-79
2023/03/19 13:19:17;;;;;;;;;;;12.90;99.90;;;;;;5058947;28;19904;-79
2023/03/19 13:21:44;;;;;;;;;;;13.20;99.90;;;;;;5059589;28;20321;-78
2023/03/19 13:24:21;;;;;;;;;;;13.60;99.90;;;;;;5059261;28;20007;-79
2023/03/19 13:26:51;;;;;;;;;;;14.00;99.90;;;;;;5040953;28;19911;-79
2023/03/19 13:29:27;;;;;;;;;;;14.10;99.90;;;;;;5040773;28;20359;-79
2023/03/19 13:32:00;;;;;;;;;;;14.20;99.90;;;;;;5040865;28;19912;-79
2023/03/19 13:34:27;;;;;;;;;;;14.20;99.90;;;;;;5040580;28;19909;-79
2023/03/19 13:36:58;;;;;;;;;;;14.20;99.90;;;;;;5058379;28;19905;-79
2023/03/19 13:39:26;;;;;;;;;;;14.10;99.90;;;;;;5058921;28;19905;-79
2023/03/19 13:42:05;;;;;;;;;;;14.50;99.90;;;;;;5040874;28;19977;-79
2023/03/19 13:44:30;;;;;;;;;;;14.10;99.90;;;;;;5040601;28;19927;-79
2023/03/19 13:46:56;;;;;;;;;;;14.00;99.90;;;;;;5058229;28;19912;-79
2023/03/19 13:49:30;;;;;;;;;;;14.00;99.90;;;;;;5058589;28;19904;-79
2023/03/19 13:52:19;;;;;;;;;;;13.90;99.90;;;;;;5058773;28;19905;-79
2023/03/19 13:54:45;;;;;;;;;;;13.90;99.90;;;;;;5058030;28;19909;-79
2023/03/19 13:57:12;;;;;;;;;;;13.80;99.90;;;;;;5040224;28;19911;-79
2023/03/19 13:59:40;;;;;;;;;;;13.90;99.90;;;;;;5040592;28;19958;-79
2023/03/19 14:02:14;;;;;;;;;;;14.00;99.90;;;;;;5058360;28;19912;-79
2023/03/19 14:04:48;;;;;;;;;;;14.20;99.90;;;;;;5058365;28;19904;-79
2023/03/19 14:07:13;;;;;;;;;;;14.90;99.90;;;;;;5058071;28;19965;-79
2023/03/19 14:09:41;;;;;;;;;;;15.10;99.90;;;;;;5057738;28;19905;-79
2023/03/19 14:12:08;;;;;;;;;;;14.50;99.90;;;;;;5039710;28;19948;-79
2023/03/19 14:14:38;;;;;;;;;;;14.60;99.90;;;;;;5040752;28;19948;-79
2023/03/19 14:17:33;;;;;;;;;;;14.50;99.90;;;;;;5040190;28;19932;-79
2023/03/19 14:20:14;;;;;;;;;;;14.40;99.90;;;;;;5044862;28;19912;-79
2023/03/19 14:22:51;;;;;;;;;;;14.30;99.90;;;;;;5057744;28;20256;-80
2023/03/19 14:25:20;;;;;;;;;;;14.10;99.90;;;;;;5057256;28;19916;-79